Musselfork, Missouri
Current Conditions -  °F | °C
As of 1:55 PM on Friday 21 Nov 2014 (Local Time) from KMHL Reporting Station
Overcast Overcast  
Wind Chill:   Ceiling: 2000
Heat Index:   Visibility: 10mi
Dew Point: -2°   Wind: 13mph
Humidity: 57%   Direction: 120°ESE
Pressure: 30.21"   Gusts: NA
Location:  39.4953°N, 92.9281°W
Report Text: KMHL 211955Z AUTO 12011KT 10SM OVC020 06/M02 A3021 RMK AO2
Loading
Personal Weather Stations






























Interactive Weather Map New forecast layout! Learn more

10-Day Weather Forecast

Advertisements
Track Severe Weather on mobile